createdAt,value
2022-08-09T00:01:01.158Z,41.98
2022-08-09T00:04:05.984Z,42.19
2022-08-09T00:06:23.101Z,42.11
2022-08-09T00:08:54.129Z,42.36
2022-08-09T00:12:03.036Z,42.81
2022-08-09T00:14:28.023Z,42.79
2022-08-09T00:17:07.388Z,42.87
2022-08-09T00:19:37.613Z,42.77
2022-08-09T00:22:09.758Z,42.62
2022-08-09T00:24:40.713Z,43.43
2022-08-09T00:27:12.621Z,43.00
2022-08-09T00:30:16.782Z,43.43
2022-08-09T00:32:31.552Z,43.49
2022-08-09T00:35:00.975Z,43.74
2022-08-09T00:37:32.583Z,43.77
2022-08-09T00:40:12.161Z,43.86
2022-08-09T00:44:13.947Z,44.12
2022-08-09T00:45:37.551Z,44.20
2022-08-09T00:48:19.819Z,44.33
2022-08-09T00:50:52.093Z,44.04
2022-08-09T00:53:23.965Z,43.99
2022-08-09T00:56:04.475Z,44.22
2022-08-09T00:58:38.501Z,44.82
2022-08-09T01:01:15.958Z,45.08
2022-08-09T01:03:51.178Z,45.22
2022-08-09T01:06:53.428Z,45.04
2022-08-09T01:09:23.899Z,45.47
2022-08-09T01:11:57.365Z,45.70
2022-08-09T01:14:31.825Z,45.66
2022-08-09T01:17:05.183Z,45.72
2022-08-09T01:19:57.281Z,46.07
2022-08-09T01:22:55.014Z,45.80
2022-08-09T01:25:29.517Z,45.98
2022-08-09T01:28:04.054Z,45.53
2022-08-09T01:30:52.703Z,46.42
2022-08-09T01:33:24.456Z,47.00
2022-08-09T01:35:56.128Z,46.65
2022-08-09T01:38:30.083Z,46.37
2022-08-09T01:41:05.208Z,46.60
2022-08-09T01:43:51.070Z,46.91
2022-08-09T01:46:24.797Z,46.61
2022-08-09T01:48:57.315Z,46.94
2022-08-09T01:51:32.581Z,46.97
2022-08-09T01:54:04.363Z,47.34
2022-08-09T01:56:35.151Z,47.35
2022-08-09T01:59:10.808Z,47.63
2022-08-09T02:01:59.278Z,47.71
2022-08-09T02:04:30.312Z,47.27
2022-08-09T02:07:17.862Z,47.96
2022-08-09T02:10:06.713Z,47.99
2022-08-09T02:12:37.507Z,48.22
2022-08-09T02:15:16.806Z,47.97
2022-08-09T02:18:00.930Z,47.50
2022-08-09T02:20:43.261Z,47.36
2022-08-09T02:23:17.116Z,47.68
2022-08-09T02:25:52.544Z,48.20
2022-08-09T02:28:24.685Z,48.03
2022-08-09T02:31:02.979Z,48.48
2022-08-09T02:34:06.430Z,48.35
2022-08-09T02:36:37.794Z,48.00
2022-08-09T02:39:20.063Z,48.18
2022-08-09T02:42:00.472Z,48.45
2022-08-09T02:44:37.044Z,48.94
2022-08-09T02:47:11.106Z,49.20
2022-08-09T02:49:45.133Z,49.12
2022-08-09T02:52:16.821Z,48.84
2022-08-09T02:54:53.988Z,49.46
2022-08-09T02:57:25.439Z,49.16
2022-08-09T03:00:21.375Z,49.51
2022-08-09T03:02:59.925Z,48.84
2022-08-09T03:05:34.496Z,49.20
2022-08-09T03:08:05.480Z,48.68
2022-08-09T03:10:36.845Z,48.73
2022-08-09T03:13:08.469Z,48.43
2022-08-09T03:16:05.891Z,48.65
2022-08-09T03:18:32.527Z,49.20
2022-08-09T03:21:03.681Z,49.05
2022-08-09T03:23:33.480Z,49.60
2022-08-09T03:26:04.893Z,49.75
2022-08-09T03:28:35.441Z,49.31
2022-08-09T03:31:20.992Z,49.67
2022-08-09T03:33:56.630Z,49.60
2022-08-09T03:36:28.143Z,49.63
2022-08-09T03:38:58.046Z,49.67
2022-08-09T03:41:29.886Z,49.79
2022-08-09T03:44:15.486Z,50.14
2022-08-09T03:46:46.451Z,50.34
2022-08-09T03:49:21.257Z,50.18
2022-08-09T03:52:00.127Z,49.91
2022-08-09T03:54:32.758Z,50.22
2022-08-09T03:57:18.712Z,49.70
2022-08-09T03:59:54.971Z,49.66
2022-08-09T04:02:27.974Z,50.05
2022-08-09T04:05:05.849Z,50.13
2022-08-09T04:07:52.601Z,49.99
2022-08-09T04:10:28.998Z,49.87
2022-08-09T04:13:01.191Z,50.38
2022-08-09T04:15:52.487Z,50.29
2022-08-09T04:18:25.157Z,50.58
2022-08-09T04:20:57.236Z,50.87
2022-08-09T04:23:26.648Z,51.23
2022-08-09T04:25:56.429Z,51.32
2022-08-09T04:28:36.021Z,51.33
2022-08-09T04:31:09.524Z,51.79
2022-08-09T04:33:51.869Z,51.57
2022-08-09T04:36:27.463Z,52.18
2022-08-09T04:38:57.805Z,51.47
2022-08-09T04:41:32.987Z,51.29
2022-08-09T04:44:06.558Z,51.19
2022-08-09T04:46:59.882Z,51.17
2022-08-09T04:49:53.515Z,51.55
2022-08-09T04:52:26.465Z,50.84
2022-08-09T04:54:56.950Z,50.75
2022-08-09T04:57:26.360Z,50.93
2022-08-09T04:59:57.108Z,50.64
2022-08-09T05:02:27.444Z,50.59
2022-08-09T05:04:57.229Z,49.92
2022-08-09T05:07:32.040Z,50.15
2022-08-09T05:10:02.398Z,50.21
2022-08-09T05:12:32.997Z,50.88
2022-08-09T05:15:11.579Z,50.66
2022-08-09T05:18:38.837Z,50.35
2022-08-09T05:20:31.405Z,50.48
2022-08-09T05:23:53.574Z,50.32
2022-08-09T05:25:56.865Z,50.42
2022-08-09T05:28:26.374Z,49.93
2022-08-09T05:30:56.002Z,49.45
2022-08-09T05:33:26.491Z,48.70
2022-08-09T05:36:04.097Z,49.24
2022-08-09T05:38:39.349Z,49.10
2022-08-09T05:41:12.849Z,48.73
2022-08-09T05:43:44.994Z,48.55
2022-08-09T05:46:15.733Z,48.52
2022-08-09T05:48:45.152Z,47.88
2022-08-09T05:51:42.378Z,48.47
2022-08-09T05:54:15.421Z,48.21
2022-08-09T05:56:54.423Z,48.04
2022-08-09T05:59:24.978Z,48.25
2022-08-09T06:01:58.589Z,47.78
2022-08-09T06:04:35.071Z,47.58
2022-08-09T06:07:04.804Z,47.00
2022-08-09T06:09:53.973Z,47.34
2022-08-09T06:12:32.685Z,46.73
2022-08-09T06:15:05.898Z,46.80
2022-08-09T06:17:40.613Z,46.14
2022-08-09T06:20:10.987Z,46.55
2022-08-09T06:22:40.871Z,45.81
2022-08-09T06:25:17.783Z,45.49
2022-08-09T06:27:51.368Z,45.41
2022-08-09T06:30:21.463Z,44.97
2022-08-09T06:33:00.112Z,44.36
2022-08-09T06:35:57.296Z,44.58
2022-08-09T06:38:32.276Z,43.94
2022-08-09T06:41:19.206Z,44.16
2022-08-09T06:43:50.144Z,44.01
2022-08-09T06:46:40.235Z,43.72
2022-08-09T06:49:10.987Z,43.34
2022-08-09T06:51:41.322Z,43.32
2022-08-09T06:54:14.781Z,42.75
2022-08-09T06:56:47.142Z,42.42
2022-08-09T07:00:52.321Z,42.09
2022-08-09T07:02:06.242Z,42.20
2022-08-09T07:04:36.248Z,41.57
2022-08-09T07:07:06.176Z,41.49
2022-08-09T07:09:57.412Z,41.53
2022-08-09T07:12:38.757Z,41.23
2022-08-09T07:16:39.378Z,40.78
2022-08-09T07:18:02.324Z,40.31
2022-08-09T07:20:32.384Z,39.76
2022-08-09T07:23:01.765Z,39.31
2022-08-09T07:25:47.555Z,38.34
2022-08-09T07:28:26.380Z,37.51
2022-08-09T07:30:57.857Z,37.73
2022-08-09T07:33:27.274Z,37.33
2022-08-09T07:36:17.328Z,36.92
2022-08-09T07:38:55.149Z,37.20
2022-08-09T07:41:33.137Z,37.21
2022-08-09T07:44:11.794Z,36.70
2022-08-09T07:46:41.381Z,36.50
2022-08-09T07:49:15.363Z,36.17
2022-08-09T07:52:05.256Z,36.17
2022-08-09T07:54:34.539Z,36.01
2022-08-09T07:57:04.170Z,36.32
2022-08-09T07:59:50.989Z,35.76
2022-08-09T08:02:42.263Z,35.43
2022-08-09T08:05:18.847Z,35.73
2022-08-09T08:08:44.450Z,35.55
2022-08-09T08:10:38.152Z,35.51
2022-08-09T08:13:18.163Z,35.29
2022-08-09T08:15:52.265Z,35.64
2022-08-09T08:18:21.854Z,34.73
2022-08-09T08:20:51.686Z,34.94
2022-08-09T08:23:21.253Z,34.75
2022-08-09T08:26:08.342Z,35.01
2022-08-09T08:28:41.095Z,34.45
2022-08-09T08:31:14.587Z,34.01
2022-08-09T08:33:52.653Z,34.30
2022-08-09T08:36:28.820Z,33.90
2022-08-09T08:38:59.706Z,33.56
2022-08-09T08:41:51.169Z,33.04
2022-08-09T08:44:27.204Z,33.19
2022-08-09T08:47:04.611Z,33.26
2022-08-09T08:49:48.161Z,33.25
2022-08-09T08:55:09.011Z,32.48
2022-08-09T08:57:38.735Z,32.39
2022-08-09T09:00:16.951Z,32.84
2022-08-09T09:02:55.841Z,32.25
2022-08-09T09:05:57.942Z,31.57
2022-08-09T09:08:30.562Z,31.86
2022-08-09T09:11:03.485Z,31.79
2022-08-09T09:13:34.782Z,31.02
2022-08-09T09:16:29.775Z,31.29
2022-08-09T09:22:00.505Z,31.93
2022-08-09T09:24:30.884Z,31.76
2022-08-09T09:27:03.173Z,31.02
2022-08-09T09:29:58.039Z,31.42
2022-08-09T09:32:35.174Z,31.11
2022-08-09T09:35:15.641Z,31.37
2022-08-09T09:37:48.378Z,31.53
2022-08-09T09:40:17.980Z,31.35
2022-08-09T09:42:57.332Z,30.34
2022-08-09T09:45:29.470Z,30.57
2022-08-09T09:48:05.855Z,31.06
2022-08-09T09:50:50.591Z,31.17
2022-08-09T09:53:34.403Z,30.47
2022-08-09T09:56:20.150Z,30.83
2022-08-09T09:59:01.350Z,30.51
2022-08-09T10:01:38.295Z,29.98
2022-08-09T10:04:23.060Z,29.88
2022-08-09T10:07:10.072Z,29.92
2022-08-09T10:09:54.686Z,29.87
2022-08-09T10:12:29.695Z,29.66
2022-08-09T10:15:17.607Z,29.40
2022-08-09T10:18:12.903Z,30.04
2022-08-09T10:20:45.110Z,29.22
2022-08-09T10:23:22.734Z,28.89
2022-08-09T10:26:07.755Z,29.18
2022-08-09T15:54:07.445Z,19.96
2022-08-09T15:56:50.447Z,19.72
2022-08-09T15:59:21.731Z,19.56
2022-08-09T16:01:52.552Z,19.91
2022-08-09T16:04:23.121Z,18.91
2022-08-09T16:06:52.637Z,19.41
2022-08-09T16:09:32.695Z,19.00
2022-08-09T16:12:15.880Z,19.19
2022-08-09T16:14:45.885Z,19.09
2022-08-09T16:17:17.046Z,19.27
2022-08-09T16:19:49.574Z,19.40
2022-08-09T16:22:35.351Z,19.16
2022-08-09T16:25:08.565Z,19.15
2022-08-09T16:27:38.171Z,18.80
2022-08-09T16:30:15.289Z,18.92
2022-08-09T16:33:15.733Z,19.20
2022-08-09T16:35:57.417Z,19.11
2022-08-09T16:38:29.722Z,19.13
2022-08-09T16:41:03.907Z,18.79
2022-08-09T16:43:33.833Z,18.97
2022-08-09T16:46:10.746Z,19.18
2022-08-09T16:48:53.174Z,18.68
2022-08-09T16:51:28.813Z,18.55
2022-08-09T16:56:50.314Z,18.43
2022-08-09T16:59:19.757Z,18.54
2022-08-09T17:01:53.094Z,18.50
2022-08-09T17:04:28.054Z,18.94
2022-08-09T17:08:40.958Z,18.94
2022-08-09T17:09:47.961Z,18.55
2022-08-09T17:12:20.099Z,18.53
2022-08-09T17:14:53.680Z,18.45
2022-08-09T17:17:27.872Z,18.14
2022-08-09T17:20:29.003Z,18.43
2022-08-09T17:22:50.017Z,18.10
2022-08-09T17:25:22.072Z,18.19
2022-08-09T17:27:55.716Z,18.43
2022-08-09T17:30:26.317Z,18.22
2022-08-09T17:32:57.566Z,18.65
2022-08-09T17:35:34.497Z,18.35
2022-08-09T17:38:13.862Z,18.09
2022-08-09T17:40:54.513Z,18.08
2022-08-09T17:43:33.891Z,18.15
2022-08-09T17:46:06.346Z,18.67
2022-08-09T17:48:38.786Z,18.28
2022-08-09T17:51:17.273Z,18.20
2022-08-09T17:53:51.863Z,18.60
2022-08-09T17:56:27.069Z,18.90
2022-08-09T17:59:03.162Z,18.43
2022-08-09T18:01:40.759Z,18.86
2022-08-09T18:04:22.850Z,19.59
2022-08-09T18:06:55.074Z,20.05
2022-08-09T18:09:40.720Z,20.68
2022-08-09T18:12:17.186Z,20.47
2022-08-09T18:14:54.398Z,21.41
2022-08-09T18:17:27.687Z,21.02
2022-08-09T18:20:55.190Z,21.59
2022-08-09T18:23:05.040Z,21.83
2022-08-09T18:25:50.345Z,22.01
2022-08-09T18:30:42.197Z,21.80
2022-08-09T18:31:14.893Z,22.21
2022-08-09T18:33:54.100Z,22.66
2022-08-09T18:36:25.570Z,22.25
2022-08-09T18:39:02.913Z,22.75
2022-08-09T18:41:34.282Z,22.65
2022-08-09T18:44:13.561Z,23.03
2022-08-09T18:47:08.422Z,23.40
2022-08-09T18:49:43.500Z,23.55
2022-08-09T18:52:18.719Z,23.27
2022-08-09T18:54:54.400Z,23.42
2022-08-09T18:57:24.093Z,23.53
2022-08-09T19:00:16.633Z,23.74
2022-08-09T19:02:54.097Z,23.57
2022-08-09T19:05:48.708Z,23.66
2022-08-09T19:08:14.063Z,23.97
2022-08-09T19:10:48.219Z,24.27
2022-08-09T19:13:20.272Z,24.57
2022-08-09T19:15:52.287Z,24.72
2022-08-09T19:18:33.903Z,24.21
2022-08-09T19:21:09.604Z,24.59
2022-08-09T19:24:37.669Z,24.72
2022-08-09T19:26:31.576Z,24.83
2022-08-09T19:29:02.563Z,24.92
2022-08-09T19:31:44.926Z,25.08
2022-08-09T19:34:22.026Z,25.20
2022-08-09T19:36:52.960Z,25.42
2022-08-09T19:39:43.510Z,25.25
2022-08-09T19:42:15.154Z,26.00
2022-08-09T19:44:50.656Z,26.08
2022-08-09T19:47:23.220Z,26.23
2022-08-09T19:50:07.252Z,26.22
2022-08-09T19:52:51.446Z,26.29
2022-08-09T19:55:30.886Z,25.90
2022-08-09T19:58:16.569Z,26.25
2022-08-09T20:00:47.761Z,26.27
2022-08-09T20:04:18.484Z,26.26
2022-08-09T20:06:22.202Z,26.28
2022-08-09T20:08:55.285Z,26.54
2022-08-09T20:11:26.953Z,26.82
2022-08-09T20:13:56.650Z,26.91
2022-08-09T20:16:35.865Z,26.99
2022-08-09T20:19:48.965Z,27.53
2022-08-09T20:22:01.752Z,27.62
2022-08-09T20:24:34.526Z,28.03
2022-08-09T20:27:05.781Z,28.06
2022-08-09T20:29:38.826Z,27.85
2022-08-09T20:32:30.414Z,28.42
2022-08-09T20:34:58.566Z,28.51
2022-08-09T20:37:37.876Z,28.51
2022-08-09T20:40:26.367Z,28.79
2022-08-09T20:43:11.853Z,29.03
2022-08-09T20:46:01.657Z,29.45
2022-08-09T20:48:39.065Z,28.92
2022-08-09T20:51:19.381Z,29.67
2022-08-09T20:53:52.134Z,29.71
2022-08-09T20:56:26.144Z,30.06
2022-08-09T20:58:58.745Z,29.93
2022-08-09T21:01:34.217Z,30.28
2022-08-09T21:05:52.670Z,30.35
2022-08-09T21:07:11.386Z,30.48
2022-08-09T21:09:56.066Z,30.42
2022-08-09T21:15:18.033Z,30.94
2022-08-09T21:18:23.188Z,31.08
2022-08-09T21:20:43.316Z,31.03
2022-08-09T21:23:18.218Z,31.43
2022-08-09T21:25:59.791Z,31.61
2022-08-09T21:28:34.949Z,31.59
2022-08-09T21:31:13.598Z,31.92
2022-08-09T21:33:50.461Z,31.99
2022-08-09T21:36:23.491Z,31.84
2022-08-09T21:38:57.912Z,32.26
2022-08-09T21:42:04.353Z,32.35
2022-08-09T21:44:34.029Z,32.49
2022-08-09T21:47:07.368Z,32.64
2022-08-09T21:49:39.270Z,32.32
2022-08-09T21:52:16.897Z,32.57
2022-08-09T21:54:49.721Z,32.77
2022-08-09T21:57:38.413Z,33.13
2022-08-09T22:00:25.749Z,32.87
2022-08-09T22:02:58.202Z,32.93
2022-08-09T22:05:37.651Z,33.14
2022-08-09T22:08:14.731Z,32.75
2022-08-09T22:11:00.796Z,32.88
2022-08-09T22:13:42.366Z,32.95
2022-08-09T22:16:13.641Z,33.48
2022-08-09T22:18:54.103Z,33.44
2022-08-09T22:21:25.012Z,33.08
2022-08-09T22:24:01.182Z,33.19
2022-08-09T22:26:35.192Z,33.14
2022-08-09T22:29:10.442Z,33.14
2022-08-09T22:31:44.197Z,32.90
2022-08-09T22:34:15.160Z,32.99
2022-08-09T22:36:46.036Z,32.85
2022-08-09T22:39:47.015Z,33.16
2022-08-09T22:42:20.669Z,33.20
2022-08-09T22:45:00.585Z,33.08
2022-08-09T22:48:18.406Z,33.04
2022-08-09T22:50:33.246Z,33.41
2022-08-09T22:53:04.335Z,32.93
2022-08-09T22:56:06.108Z,33.74
2022-08-09T22:58:32.446Z,33.21
2022-08-09T23:01:06.195Z,33.24
2022-08-09T23:04:03.694Z,33.82
2022-08-09T23:06:35.259Z,33.72
2022-08-09T23:09:04.040Z,33.54
2022-08-09T23:11:33.402Z,33.92
2022-08-09T23:14:03.641Z,33.88
2022-08-09T23:16:35.816Z,34.25
2022-08-09T23:19:05.137Z,34.48
2022-08-09T23:21:34.886Z,33.92
2022-08-09T23:24:07.779Z,33.77
2022-08-09T23:26:38.196Z,33.96
2022-08-09T23:29:08.356Z,34.64
2022-08-09T23:31:40.473Z,34.91
2022-08-09T23:34:09.914Z,34.72
2022-08-09T23:36:39.343Z,34.67
2022-08-09T23:39:09.355Z,34.80
2022-08-09T23:41:38.804Z,34.90
2022-08-09T23:44:08.268Z,34.91
2022-08-09T23:46:40.449Z,35.49
2022-08-09T23:49:11.414Z,35.51
2022-08-09T23:51:40.784Z,35.51
2022-08-09T23:54:10.172Z,35.79
2022-08-09T23:56:54.411Z,35.63
2022-08-09T23:59:25.757Z,35.72
